createdAt,value
2019-04-20T00:00:59.891Z,7.88
2019-04-20T00:03:36.807Z,7.93
2019-04-20T00:06:03.414Z,7.78
2019-04-20T00:08:37.476Z,7.97
2019-04-20T00:11:11.757Z,7.94
2019-04-20T00:13:48.925Z,8.01
2019-04-20T00:16:08.652Z,7.80
2019-04-20T00:18:45.042Z,7.81
2019-04-20T00:21:28.946Z,7.61
2019-04-20T00:24:10.102Z,7.50
2019-04-20T00:27:06.147Z,7.54
2019-04-20T00:29:25.531Z,7.52
2019-04-20T00:31:49.099Z,7.41
2019-04-20T00:34:20.324Z,7.38
2019-04-20T00:36:43.209Z,7.69
2019-04-20T00:39:15.144Z,7.88
2019-04-20T00:41:51.729Z,7.87
2019-04-20T00:44:23.288Z,7.88
2019-04-20T00:47:00.980Z,7.82
2019-04-20T00:49:34.958Z,7.79
2019-04-20T00:52:18.753Z,7.96
2019-04-20T00:54:24.302Z,7.72
2019-04-20T00:57:06.640Z,7.71
2019-04-20T00:59:43.046Z,7.70
2019-04-20T01:02:12.640Z,7.52
2019-04-20T01:04:50.013Z,7.32
2019-04-20T01:07:32.042Z,7.05
2019-04-20T01:10:13.194Z,7.20
2019-04-20T01:12:44.432Z,7.34
2019-04-20T01:15:25.640Z,7.32
2019-04-20T01:17:47.344Z,7.42
2019-04-20T01:20:17.481Z,7.16
2019-04-20T01:22:54.611Z,7.18
2019-04-20T01:25:28.145Z,7.15
2019-04-20T01:28:07.765Z,7.33
2019-04-20T01:30:32.310Z,7.09
2019-04-20T01:33:12.460Z,7.13
2019-04-20T01:35:47.925Z,7.20
2019-04-20T01:38:16.779Z,7.05
2019-04-20T01:40:31.619Z,7.00
2019-04-20T01:43:01.668Z,7.09
2019-04-20T01:45:36.291Z,7.05
2019-04-20T01:48:06.136Z,7.24
2019-04-20T01:50:38.054Z,7.17
2019-04-20T01:53:19.035Z,6.90
2019-04-20T01:55:50.624Z,6.71
2019-04-20T01:58:37.693Z,6.81
2019-04-20T02:01:16.187Z,6.73
2019-04-20T02:03:48.474Z,6.72
2019-04-20T02:06:20.199Z,6.64
2019-04-20T02:08:51.702Z,6.64
2019-04-20T02:11:25.962Z,6.74
2019-04-20T02:13:57.306Z,6.82
2019-04-20T02:16:33.571Z,6.64
2019-04-20T02:19:13.547Z,6.57
2019-04-20T02:21:46.688Z,6.61
2019-04-20T02:24:04.689Z,6.43
2019-04-20T02:26:32.881Z,6.48
2019-04-20T02:29:24.639Z,6.43
2019-04-20T02:34:59.839Z,6.17
2019-04-20T02:45:24.159Z,6.11
2019-04-20T02:50:20.668Z,5.76
2019-04-20T02:52:56.469Z,5.66
2019-04-20T02:55:26.831Z,5.47
2019-04-20T03:02:38.308Z,5.44
2019-04-20T03:05:15.187Z,5.65
2019-04-20T03:07:50.439Z,5.87
2019-04-20T03:10:26.514Z,6.02
2019-04-20T03:12:59.718Z,5.99
2019-04-20T03:15:29.545Z,5.94
2019-04-20T03:18:03.673Z,5.84
2019-04-20T03:20:39.082Z,5.92
2019-04-20T03:26:05.538Z,5.89
2019-04-20T03:29:07.828Z,5.54
2019-04-20T03:36:59.228Z,5.26
2019-04-20T03:39:29.862Z,5.17
2019-04-20T03:41:46.342Z,5.15
2019-04-20T03:44:17.834Z,5.10
2019-04-20T03:46:52.194Z,5.27
2019-04-20T03:49:42.485Z,5.30
2019-04-20T03:52:23.475Z,5.23
2019-04-20T03:55:23.973Z,5.10
2019-04-20T03:58:01.491Z,5.10
2019-04-20T04:00:36.279Z,4.82
2019-04-20T04:03:45.882Z,4.91
2019-04-20T04:05:50.932Z,5.03
2019-04-20T04:08:19.405Z,4.84
2019-04-20T04:11:02.418Z,5.05
2019-04-20T04:13:16.886Z,4.93
2019-04-20T04:15:52.275Z,5.12
2019-04-20T04:18:28.063Z,5.09
2019-04-20T04:21:00.120Z,5.21
2019-04-20T04:23:42.496Z,5.26
2019-04-20T04:26:12.379Z,5.14
2019-04-20T04:28:43.345Z,4.87
2019-04-20T04:31:17.629Z,4.83
2019-04-20T04:33:55.873Z,4.67
2019-04-20T04:36:18.192Z,4.58
2019-04-20T04:39:07.544Z,4.57
2019-04-20T04:41:27.066Z,4.46
2019-04-20T04:44:00.414Z,4.35
2019-04-20T04:46:12.401Z,4.75
2019-04-20T04:48:45.942Z,4.93
2019-04-20T04:51:21.208Z,4.99
2019-04-20T04:53:56.227Z,5.08
2019-04-20T04:56:20.593Z,5.21
2019-04-20T04:58:49.576Z,5.38
2019-04-20T05:01:24.854Z,5.27
2019-04-20T05:04:14.690Z,5.06
2019-04-20T05:06:39.831Z,5.29
2019-04-20T05:09:00.406Z,5.51
2019-04-20T05:11:27.948Z,5.79
2019-04-20T05:14:03.597Z,6.49
2019-04-20T05:16:45.090Z,8.05
2019-04-20T05:19:26.531Z,9.50
2019-04-20T05:22:05.366Z,10.22
2019-04-20T05:24:34.955Z,11.56
2019-04-20T05:27:52.419Z,12.34
2019-04-20T05:30:03.657Z,13.10
2019-04-20T05:32:44.586Z,13.57
2019-04-20T05:35:26.949Z,13.75
2019-04-20T05:38:12.029Z,14.18
2019-04-20T05:40:34.032Z,14.52
2019-04-20T05:43:12.855Z,14.42
2019-04-20T05:45:39.908Z,14.69
2019-04-20T05:48:15.156Z,14.88
2019-04-20T05:50:42.200Z,14.93
2019-04-20T05:53:19.262Z,15.55
2019-04-20T05:55:51.563Z,14.94
2019-04-20T05:58:22.345Z,15.32
2019-04-20T06:00:55.047Z,16.07
2019-04-20T06:03:24.631Z,15.61
2019-04-20T06:06:03.488Z,15.78
2019-04-20T06:08:39.000Z,16.16
2019-04-20T06:11:04.161Z,17.11
2019-04-20T06:13:32.637Z,17.90
2019-04-20T06:16:14.362Z,17.49
2019-04-20T06:18:45.938Z,17.29
2019-04-20T06:21:32.317Z,17.19
2019-04-20T06:24:36.354Z,17.52
2019-04-20T06:26:59.255Z,17.76
2019-04-20T06:29:23.702Z,18.40
2019-04-20T06:32:05.175Z,18.86
2019-04-20T06:34:40.043Z,18.82
2019-04-20T06:37:02.145Z,18.44
2019-04-20T06:39:37.018Z,18.93
2019-04-20T06:45:02.226Z,19.78
2019-04-20T06:47:15.802Z,20.12
2019-04-20T06:49:40.594Z,19.71
2019-04-20T06:52:27.367Z,20.69
2019-04-20T06:55:07.065Z,21.53
2019-04-20T06:57:54.752Z,21.52
2019-04-20T07:00:15.365Z,21.84
2019-04-20T07:05:18.888Z,21.43
2019-04-20T07:07:54.875Z,21.84
2019-04-20T07:10:27.206Z,22.95
2019-04-20T07:12:49.348Z,22.73
2019-04-20T07:15:25.509Z,23.59
2019-04-20T07:20:41.191Z,24.01
2019-04-20T07:23:18.243Z,24.70
2019-04-20T07:25:44.725Z,24.09
2019-04-20T07:28:14.398Z,24.21
2019-04-20T07:30:40.335Z,24.81
2019-04-20T07:33:18.633Z,24.77
2019-04-20T07:35:46.537Z,24.41
2019-04-20T07:38:32.931Z,24.75
2019-04-20T07:40:42.903Z,25.32
2019-04-20T07:43:19.870Z,25.66
2019-04-20T07:45:50.225Z,25.70
2019-04-20T07:48:21.263Z,26.54
2019-04-20T07:50:48.589Z,27.40
2019-04-20T07:53:25.782Z,27.15
2019-04-20T07:56:07.572Z,27.62
2019-04-20T07:58:25.050Z,27.57
2019-04-20T08:01:15.174Z,28.06
2019-04-20T08:03:52.630Z,28.12
2019-04-20T08:06:35.581Z,27.17
2019-04-20T08:09:11.588Z,27.09
2019-04-20T08:11:54.940Z,28.24
2019-04-20T08:14:24.167Z,29.27
2019-04-20T08:17:12.163Z,30.72
2019-04-20T08:19:22.772Z,30.36
2019-04-20T08:21:57.135Z,30.50
2019-04-20T08:24:30.515Z,30.85
2019-04-20T08:26:50.223Z,30.55
2019-04-20T08:29:40.491Z,30.54
2019-04-20T08:32:22.905Z,31.00
2019-04-20T08:34:56.538Z,30.93
2019-04-20T08:37:20.763Z,31.26
2019-04-20T08:40:05.325Z,31.85
2019-04-20T08:42:30.441Z,31.13
2019-04-20T08:45:03.947Z,30.92
2019-04-20T08:47:50.462Z,30.60
2019-04-20T08:55:19.356Z,33.23
2019-04-20T08:57:35.558Z,31.99
2019-04-20T09:00:09.249Z,30.34
2019-04-20T09:02:47.718Z,29.82
2019-04-20T09:05:28.570Z,30.74
2019-04-20T09:07:56.653Z,31.41
2019-04-20T09:10:40.740Z,30.39
2019-04-20T09:13:03.235Z,31.33
2019-04-20T09:15:21.275Z,30.72
2019-04-20T09:18:00.976Z,29.53
2019-04-20T09:20:42.360Z,28.47
2019-04-20T09:23:16.609Z,27.07
2019-04-20T09:28:38.266Z,26.73
2019-04-20T09:31:36.945Z,25.56
2019-04-20T09:34:00.355Z,24.93
2019-04-20T09:36:29.197Z,24.01
2019-04-20T09:39:21.109Z,23.93
2019-04-20T09:42:09.698Z,23.32
2019-04-20T09:44:44.996Z,23.44
2019-04-20T09:47:12.344Z,23.46
2019-04-20T09:49:54.921Z,22.83
2019-04-20T09:52:28.995Z,22.78
2019-04-20T09:55:02.925Z,22.89
2019-04-20T09:57:39.442Z,22.62
2019-04-20T10:00:10.372Z,22.85
2019-04-20T10:02:27.163Z,22.75
2019-04-20T10:04:55.587Z,22.65
2019-04-20T10:07:29.882Z,22.76
2019-04-20T10:09:57.845Z,22.90
2019-04-20T10:12:29.103Z,22.62
2019-04-20T10:15:04.154Z,22.58
2019-04-20T10:17:33.234Z,22.36
2019-04-20T10:20:11.825Z,22.80
2019-04-20T10:22:34.568Z,22.51
2019-04-20T10:25:07.051Z,22.90
2019-04-20T10:27:36.980Z,22.95
2019-04-20T10:30:08.219Z,23.11
2019-04-20T10:32:43.026Z,23.13
2019-04-20T10:35:13.188Z,23.42
2019-04-20T10:37:47.827Z,23.31
2019-04-20T10:40:36.458Z,23.07
2019-04-20T10:42:50.124Z,23.24
2019-04-20T10:45:21.245Z,23.64
2019-04-20T10:47:52.815Z,23.56
2019-04-20T10:50:23.361Z,23.83
2019-04-20T10:52:54.047Z,24.44
2019-04-20T10:55:25.161Z,24.47
2019-04-20T10:57:55.587Z,24.47
2019-04-20T11:00:41.931Z,25.00
2019-04-20T11:03:13.620Z,25.21
2019-04-20T11:05:44.713Z,25.43
2019-04-20T11:08:16.738Z,25.89
2019-04-20T11:10:59.236Z,26.03
2019-04-20T11:13:19.437Z,25.78
2019-04-20T11:15:50.574Z,26.42
2019-04-20T11:18:21.772Z,25.77
2019-04-20T11:20:53.271Z,26.13
2019-04-20T11:23:24.455Z,27.21
2019-04-20T11:25:55.925Z,29.09
2019-04-20T11:28:26.293Z,29.16
2019-04-20T11:30:56.355Z,30.89
2019-04-20T11:33:28.392Z,33.61
2019-04-20T11:35:59.131Z,32.97
2019-04-20T11:38:30.195Z,33.26
2019-04-20T11:41:10.625Z,31.98
2019-04-20T11:43:33.619Z,33.38
2019-04-20T11:46:04.816Z,34.91
2019-04-20T11:48:35.033Z,34.82
2019-04-20T11:51:05.545Z,36.87
2019-04-20T11:53:36.414Z,36.12
2019-04-20T11:56:13.457Z,30.60
2019-04-20T11:58:38.771Z,35.05
2019-04-20T12:01:37.033Z,37.65
2019-04-20T12:04:22.740Z,39.41
2019-04-20T12:06:35.077Z,36.87
2019-04-20T12:09:10.791Z,37.52
2019-04-20T12:11:56.021Z,34.61
2019-04-20T12:14:12.754Z,32.88
2019-04-20T12:16:43.747Z,33.84
2019-04-20T12:19:14.685Z,31.96
2019-04-20T12:21:45.593Z,32.85
2019-04-20T12:24:16.400Z,31.04
2019-04-20T12:26:46.989Z,33.29
2019-04-20T12:29:19.550Z,35.05
2019-04-20T12:31:53.853Z,33.36
2019-04-20T12:34:22.313Z,32.51
2019-04-20T12:36:53.283Z,31.86
2019-04-20T12:39:24.766Z,32.34
2019-04-20T12:41:58.780Z,29.62
2019-04-20T12:44:27.915Z,27.77
2019-04-20T12:46:59.545Z,26.06
2019-04-20T12:49:29.694Z,25.26
2019-04-20T12:52:04.411Z,24.92
2019-04-20T12:54:32.364Z,24.69
2019-04-20T12:57:02.604Z,24.87
2019-04-20T12:59:33.667Z,25.58
2019-04-20T13:02:03.543Z,25.98
2019-04-20T13:04:35.337Z,29.29
2019-04-20T13:07:05.954Z,31.44
2019-04-20T13:09:44.298Z,32.68
2019-04-20T13:12:46.663Z,33.42
2019-04-20T13:15:40.378Z,31.09
2019-04-20T13:18:11.550Z,30.82
2019-04-20T13:20:41.846Z,30.46
2019-04-20T13:23:12.896Z,32.99
2019-04-20T13:25:43.305Z,32.79
2019-04-20T13:28:13.295Z,32.22
2019-04-20T13:30:43.865Z,33.18
2019-04-20T13:33:14.195Z,33.12
2019-04-20T13:35:44.204Z,32.68
2019-04-20T13:38:14.240Z,33.24
2019-04-20T13:40:45.867Z,33.77
2019-04-20T13:43:15.814Z,34.88
2019-04-20T13:45:46.845Z,34.93
2019-04-20T13:48:16.987Z,36.36
2019-04-20T13:50:46.912Z,36.05
2019-04-20T13:53:17.104Z,33.75
2019-04-20T13:55:47.744Z,32.53
2019-04-20T13:58:35.968Z,31.78
2019-04-20T14:01:26.595Z,30.23
2019-04-20T14:04:05.711Z,29.57
2019-04-20T14:06:37.200Z,29.77
2019-04-20T14:09:09.903Z,30.19
2019-04-20T14:11:41.278Z,30.80
2019-04-20T14:14:12.965Z,30.34
2019-04-20T14:16:43.136Z,30.26
2019-04-20T14:19:14.228Z,30.29
2019-04-20T14:21:44.428Z,30.93
2019-04-20T14:24:15.064Z,30.54
2019-04-20T14:26:45.804Z,29.73
2019-04-20T14:29:16.986Z,30.16
2019-04-20T14:31:48.023Z,31.47
2019-04-20T14:34:18.026Z,32.01
2019-04-20T14:36:49.063Z,30.23
2019-04-20T14:39:20.286Z,31.85
2019-04-20T14:41:51.914Z,31.97
2019-04-20T14:44:21.877Z,31.69
2019-04-20T14:46:51.927Z,31.28
2019-04-20T14:49:22.956Z,32.22
2019-04-20T14:51:55.829Z,30.80
2019-04-20T14:54:25.562Z,32.36
2019-04-20T14:56:55.869Z,31.23
2019-04-20T14:59:45.416Z,32.00
2019-04-20T15:02:21.670Z,31.41
2019-04-20T15:04:52.727Z,31.36
2019-04-20T15:07:22.976Z,31.41
2019-04-20T15:09:53.027Z,29.87
2019-04-20T15:12:35.974Z,29.40
2019-04-20T15:14:54.683Z,29.99
2019-04-20T15:17:30.740Z,30.99
2019-04-20T15:20:19.253Z,31.34
2019-04-20T15:22:51.675Z,29.69
2019-04-20T15:25:21.577Z,29.68
2019-04-20T15:27:52.360Z,30.58
2019-04-20T15:30:22.456Z,30.36
2019-04-20T15:32:52.592Z,31.56
2019-04-20T15:35:23.338Z,30.28
2019-04-20T15:37:55.249Z,31.03
2019-04-20T15:40:26.859Z,31.90
2019-04-20T15:43:04.341Z,32.66
2019-04-20T15:45:29.686Z,31.79
2019-04-20T15:47:59.755Z,31.77
2019-04-20T15:50:30.207Z,31.57
2019-04-20T15:53:01.933Z,31.37
2019-04-20T15:55:37.695Z,31.77
2019-04-20T15:58:06.422Z,30.05
2019-04-20T16:00:36.465Z,28.18
2019-04-20T16:03:12.110Z,28.91
2019-04-20T16:05:53.369Z,29.27
2019-04-20T16:08:38.738Z,29.67
2019-04-20T16:11:09.377Z,29.66
2019-04-20T16:13:44.021Z,29.35
2019-04-20T16:16:12.141Z,29.27
2019-04-20T16:18:43.253Z,29.60
2019-04-20T16:21:20.154Z,29.44
2019-04-20T16:23:57.272Z,29.17
2019-04-20T16:26:33.530Z,29.15
2019-04-20T16:29:03.923Z,28.38
2019-04-20T16:31:33.901Z,28.20
2019-04-20T16:34:03.796Z,27.92
2019-04-20T16:36:34.658Z,27.51
2019-04-20T16:39:09.034Z,27.39
2019-04-20T16:41:38.409Z,26.95
2019-04-20T16:44:09.283Z,27.14
2019-04-20T16:46:40.427Z,27.43
2019-04-20T16:49:10.915Z,27.22
2019-04-20T16:51:41.124Z,26.43
2019-04-20T16:54:11.991Z,26.38
2019-04-20T16:56:42.585Z,26.32
2019-04-20T16:59:14.197Z,25.95
2019-04-20T17:01:44.643Z,25.49
2019-04-20T17:04:19.141Z,25.50
2019-04-20T17:07:05.956Z,25.54
2019-04-20T17:09:36.199Z,25.78
2019-04-20T17:12:06.322Z,25.64
2019-04-20T17:14:37.832Z,25.51
2019-04-20T17:17:09.381Z,25.11
2019-04-20T17:19:39.878Z,24.83
2019-04-20T17:22:09.910Z,24.11
2019-04-20T17:24:40.124Z,23.38
2019-04-20T17:27:33.051Z,22.90
2019-04-20T17:30:33.591Z,23.32
2019-04-20T17:33:06.230Z,23.19
2019-04-20T17:35:47.349Z,23.22
2019-04-20T17:38:08.970Z,23.28
2019-04-20T17:40:55.988Z,22.72
2019-04-20T17:43:21.090Z,22.48
2019-04-20T17:45:52.347Z,21.94
2019-04-20T17:48:29.775Z,22.09
2019-04-20T17:51:14.182Z,21.66
2019-04-20T17:53:45.020Z,21.19
2019-04-20T17:56:10.327Z,20.90
2019-04-20T17:58:41.354Z,20.64
2019-04-20T18:01:41.311Z,20.40
2019-04-20T18:04:34.047Z,20.21
2019-04-20T18:06:47.743Z,20.07
2019-04-20T18:09:34.878Z,19.81
2019-04-20T18:11:46.740Z,19.55
2019-04-20T18:14:28.525Z,19.21
2019-04-20T18:17:02.260Z,19.09
2019-04-20T18:19:29.191Z,18.98
2019-04-20T18:22:05.773Z,18.67
2019-04-20T18:25:02.673Z,18.38
2019-04-20T18:27:31.977Z,18.20
2019-04-20T18:29:58.294Z,17.90
2019-04-20T18:32:23.500Z,17.62
2019-04-20T18:35:00.854Z,17.67
2019-04-20T18:37:28.843Z,17.89
2019-04-20T18:40:06.208Z,17.59
2019-04-20T18:42:38.421Z,17.18
2019-04-20T18:45:21.625Z,17.10
2019-04-20T18:47:53.974Z,17.74
2019-04-20T18:50:20.605Z,17.75
2019-04-20T18:52:42.164Z,17.31
2019-04-20T18:55:17.399Z,16.91
2019-04-20T18:57:44.712Z,16.61
2019-04-20T19:00:22.575Z,16.43
2019-04-20T19:02:52.588Z,16.53
2019-04-20T19:05:21.840Z,16.44
2019-04-20T19:07:59.282Z,16.38
2019-04-20T19:10:28.796Z,16.05
2019-04-20T19:13:03.339Z,15.80
2019-04-20T19:16:07.897Z,15.50
2019-04-20T19:18:58.517Z,15.58
2019-04-20T19:21:15.169Z,15.56
2019-04-20T19:23:54.877Z,15.47
2019-04-20T19:26:21.062Z,15.49
2019-04-20T19:28:53.892Z,15.56
2019-04-20T19:31:38.016Z,15.41
2019-04-20T19:34:16.811Z,15.24
2019-04-20T19:36:34.096Z,15.16
2019-04-20T19:39:17.200Z,15.08
2019-04-20T19:41:39.055Z,15.01
2019-04-20T19:44:13.144Z,15.04
2019-04-20T19:49:19.701Z,14.61
2019-04-20T19:52:02.858Z,14.52
2019-04-20T19:54:30.139Z,14.45
2019-04-20T19:56:54.327Z,14.38
2019-04-20T19:59:21.374Z,14.38
2019-04-20T20:01:43.043Z,14.38
2019-04-20T20:04:13.749Z,14.21
2019-04-20T20:06:50.600Z,13.93
2019-04-20T20:09:17.807Z,13.84
2019-04-20T20:11:48.531Z,13.89
2019-04-20T20:14:31.986Z,13.89
2019-04-20T20:17:10.146Z,13.84
2019-04-20T20:19:38.492Z,13.83
2019-04-20T20:22:05.558Z,13.95
2019-04-20T20:24:27.113Z,13.78
2019-04-20T20:27:02.534Z,13.56
2019-04-20T20:29:37.638Z,13.58
2019-04-20T20:32:11.700Z,13.68
2019-04-20T20:34:38.362Z,13.53
2019-04-20T20:37:09.681Z,13.39
2019-04-20T20:39:38.662Z,13.18
2019-04-20T20:42:19.822Z,12.92
2019-04-20T20:44:48.643Z,12.72
2019-04-20T20:47:36.846Z,12.51
2019-04-20T20:50:08.803Z,12.28
2019-04-20T20:52:31.514Z,12.37
2019-04-20T20:54:56.427Z,12.17
2019-04-20T20:57:22.359Z,12.18
2019-04-20T20:59:59.343Z,12.11
2019-04-20T21:02:33.885Z,12.02
2019-04-20T21:04:53.664Z,12.27
2019-04-20T21:07:24.694Z,11.94
2019-04-20T21:09:54.701Z,11.82
2019-04-20T21:12:25.738Z,11.94
2019-04-20T21:15:00.376Z,11.81
2019-04-20T21:17:40.771Z,11.69
2019-04-20T21:20:17.862Z,11.87
2019-04-20T21:22:50.298Z,12.07
2019-04-20T21:25:05.389Z,12.04
2019-04-20T21:27:35.389Z,11.72
2019-04-20T21:30:17.250Z,11.70
2019-04-20T21:32:43.981Z,11.40
2019-04-20T21:35:13.843Z,11.22
2019-04-20T21:37:51.225Z,10.96
2019-04-20T21:40:23.811Z,11.12
2019-04-20T21:42:53.474Z,11.22
2019-04-20T21:45:24.862Z,10.86
2019-04-20T21:47:50.200Z,10.82
2019-04-20T21:50:34.666Z,10.83
2019-04-20T21:52:58.587Z,10.57
2019-04-20T21:55:24.039Z,10.43
2019-04-20T21:57:57.356Z,10.28
2019-04-20T22:00:47.726Z,10.33
2019-04-20T22:03:17.247Z,10.51
2019-04-20T22:05:48.498Z,10.21
2019-04-20T22:08:19.786Z,9.87
2019-04-20T22:10:50.279Z,9.71
2019-04-20T22:13:26.770Z,9.57
2019-04-20T22:16:01.413Z,9.56
2019-04-20T22:18:27.148Z,9.62
2019-04-20T22:21:09.461Z,9.37
2019-04-20T22:23:49.240Z,9.61
2019-04-20T22:26:11.870Z,9.54
2019-04-20T22:28:34.394Z,9.34
2019-04-20T22:31:04.527Z,9.16
2019-04-20T22:33:39.683Z,8.87
2019-04-20T22:36:11.333Z,8.69
2019-04-20T22:39:05.105Z,9.08
2019-04-20T22:41:38.680Z,9.20
2019-04-20T22:44:13.630Z,9.09
2019-04-20T22:46:43.698Z,9.04
2019-04-20T22:49:26.522Z,8.87
2019-04-20T22:51:56.741Z,9.07
2019-04-20T22:54:34.570Z,9.04
2019-04-20T22:56:57.050Z,9.03
2019-04-20T22:59:23.345Z,9.14
2019-04-20T23:01:55.197Z,9.17
2019-04-20T23:04:22.686Z,8.86
2019-04-20T23:06:54.125Z,8.68
2019-04-20T23:09:24.737Z,8.90
2019-04-20T23:12:03.555Z,8.96
2019-04-20T23:14:26.640Z,8.71
2019-04-20T23:16:57.596Z,8.59
2019-04-20T23:19:36.599Z,8.68
2019-04-20T23:22:03.487Z,8.77
2019-04-20T23:24:31.369Z,8.70
2019-04-20T23:27:04.467Z,8.48
2019-04-20T23:29:37.906Z,8.42
2019-04-20T23:32:08.355Z,8.53
2019-04-20T23:34:38.967Z,8.36
2019-04-20T23:37:16.277Z,8.20
2019-04-20T23:39:43.241Z,8.31
2019-04-20T23:42:16.014Z,8.01
2019-04-20T23:45:14.442Z,7.93
2019-04-20T23:47:57.706Z,8.05
2019-04-20T23:50:42.385Z,8.23
2019-04-20T23:53:13.895Z,8.06
2019-04-20T23:55:28.165Z,7.73
2019-04-20T23:58:04.980Z,7.96
